Kingvale, California
Current Conditions -  °F | °C
As of 1:52 PM on Thursday 18 Dec 2014 (Local Time) from KBLU Reporting Station
Scattered Clouds Scattered Clouds  
Wind Chill: 36°   Ceiling: Unl
Heat Index: 40°   Visibility: 10mi
Dew Point: 33°   Wind: 6mph
Humidity: 77%   Direction: NA
Pressure: 30.14"   Gusts: NA
Location:  39.4261°N, 120.475°W
Report Text: KBLU 182152Z AUTO VRB05KT 10SM SCT017 04/01 A3014 RMK AO2 SLP203 T00440006
Loading
Personal Weather Stations






























Interactive Weather Map New forecast layout! Learn more

10-Day Weather Forecast

Advertisements
Track Severe Weather on mobile